sensor_id;sensor_type;location;lat;lon;timestamp;pressure;altitude;pressure_sealevel;temperature;humidity
79004;BME280;68369;51.050;17.018;2023-08-12T01:45:34;100756.63;;;15.12;72.74
79004;BME280;68369;51.050;17.018;2023-08-12T02:35:39;100727.23;;;14.95;72.91
79004;BME280;68369;51.050;17.018;2023-08-12T03:08:08;100724.05;;;14.79;73.25
79004;BME280;68369;51.050;17.018;2023-08-12T03:11:01;100728.31;;;14.75;73.55
79004;BME280;68369;51.050;17.018;2023-08-12T03:13:49;100736.50;;;14.73;73.35
79004;BME280;68369;51.050;17.018;2023-08-12T03:16:35;100731.10;;;14.72;73.37
79004;BME280;68369;51.050;17.018;2023-08-12T03:51:54;100734.30;;;14.71;73.91
79004;BME280;68369;51.050;17.018;2023-08-12T03:54:39;100732.04;;;14.71;73.83
79004;BME280;68369;51.050;17.018;2023-08-12T03:57:25;100728.48;;;14.72;73.90
79004;BME280;68369;51.050;17.018;2023-08-12T04:00:14;100730.95;;;14.72;74.06
79004;BME280;68369;51.050;17.018;2023-08-12T04:03:00;100733.61;;;14.71;74.12
79004;BME280;68369;51.050;17.018;2023-08-12T04:45:30;100712.01;;;15.16;75.17
79004;BME280;68369;51.050;17.018;2023-08-12T04:48:17;100708.59;;;15.20;75.12
79004;BME280;68369;51.050;17.018;2023-08-12T05:04:03;100715.95;;;15.50;75.47
79004;BME280;68369;51.050;17.018;2023-08-12T05:06:49;100722.10;;;15.56;75.46
79004;BME280;68369;51.050;17.018;2023-08-12T05:09:34;100721.08;;;15.62;75.52
79004;BME280;68369;51.050;17.018;2023-08-12T05:12:24;100720.77;;;15.68;75.59
79004;BME280;68369;51.050;17.018;2023-08-12T05:24:58;100706.50;;;15.92;75.64
79004;BME280;68369;51.050;17.018;2023-08-12T05:27:44;100707.63;;;16.00;75.83
79004;BME280;68369;51.050;17.018;2023-08-12T05:30:29;100696.64;;;16.06;75.89
79004;BME280;68369;51.050;17.018;2023-08-12T05:33:15;100698.06;;;16.12;75.93
79004;BME280;68369;51.050;17.018;2023-08-12T05:36:01;100688.67;;;16.16;76.04
79004;BME280;68369;51.050;17.018;2023-08-12T05:48:31;100686.27;;;16.52;75.86
79004;BME280;68369;51.050;17.018;2023-08-12T05:51:17;100683.84;;;16.61;76.05
79004;BME280;68369;51.050;17.018;2023-08-12T06:56:06;100656.26;;;31.04;49.21
79004;BME280;68369;51.050;17.018;2023-08-12T07:22:13;100661.77;;;41.93;25.14
79004;BME280;68369;51.050;17.018;2023-08-12T07:25:03;100661.92;;;42.50;24.34
79004;BME280;68369;51.050;17.018;2023-08-12T07:27:49;100661.65;;;43.02;23.36
79004;BME280;68369;51.050;17.018;2023-08-12T07:30:35;100662.20;;;43.21;22.60
79004;BME280;68369;51.050;17.018;2023-08-12T07:33:25;100663.23;;;43.79;22.15
79004;BME280;68369;51.050;17.018;2023-08-12T07:36:11;100663.24;;;44.92;21.04
79004;BME280;68369;51.050;17.018;2023-08-12T07:38:56;100657.45;;;45.90;19.97
79004;BME280;68369;51.050;17.018;2023-08-12T07:41:43;100652.30;;;46.84;19.04
79004;BME280;68369;51.050;17.018;2023-08-12T07:44:35;100653.66;;;47.76;18.01
79004;BME280;68369;51.050;17.018;2023-08-12T07:47:21;100652.58;;;48.61;17.01
79004;BME280;68369;51.050;17.018;2023-08-12T07:50:08;100650.64;;;49.42;16.33
79004;BME280;68369;51.050;17.018;2023-08-12T07:52:54;100644.09;;;50.08;15.52
79004;BME280;68369;51.050;17.018;2023-08-12T07:55:41;100642.60;;;50.72;14.83
79004;BME280;68369;51.050;17.018;2023-08-12T07:58:31;100642.90;;;51.27;13.97
79004;BME280;68369;51.050;17.018;2023-08-12T08:01:21;100643.09;;;51.21;13.76
79004;BME280;68369;51.050;17.018;2023-08-12T08:04:07;100633.03;;;50.24;14.18
79004;BME280;68369;51.050;17.018;2023-08-12T08:06:53;100627.27;;;50.15;13.86
79004;BME280;68369;51.050;17.018;2023-08-12T08:09:41;100620.05;;;50.82;13.38
79004;BME280;68369;51.050;17.018;2023-08-12T08:12:28;100625.40;;;51.51;13.31
79004;BME280;68369;51.050;17.018;2023-08-12T08:15:14;100625.63;;;51.27;13.07
79004;BME280;68369;51.050;17.018;2023-08-12T08:18:00;100631.47;;;49.37;13.88
79004;BME280;68369;51.050;17.018;2023-08-12T08:20:51;100617.90;;;47.03;15.21
79004;BME280;68369;51.050;17.018;2023-08-12T08:23:42;100611.98;;;44.96;16.38
79004;BME280;68369;51.050;17.018;2023-08-12T10:34:56;100521.23;;;29.03;37.75
79004;BME280;68369;51.050;17.018;2023-08-12T10:37:49;100515.99;;;29.08;37.45
79004;BME280;68369;51.050;17.018;2023-08-12T12:41:41;100405.14;;;30.51;35.57
79004;BME280;68369;51.050;17.018;2023-08-12T13:36:25;100357.23;;;29.79;38.10
79004;BME280;68369;51.050;17.018;2023-08-12T13:39:14;100353.41;;;29.79;38.11
79004;BME280;68369;51.050;17.018;2023-08-12T13:42:17;100343.57;;;29.74;38.20
79004;BME280;68369;51.050;17.018;2023-08-12T13:45:07;100340.73;;;29.66;38.61
79004;BME280;68369;51.050;17.018;2023-08-12T13:47:58;100338.99;;;29.61;38.68
79004;BME280;68369;51.050;17.018;2023-08-12T13:50:46;100343.55;;;29.59;38.56
79004;BME280;68369;51.050;17.018;2023-08-12T13:53:40;100337.40;;;29.61;38.40
79004;BME280;68369;51.050;17.018;2023-08-12T15:07:22;100234.84;;;29.98;38.53
79004;BME280;68369;51.050;17.018;2023-08-12T15:10:08;100232.61;;;29.99;38.34
79004;BME280;68369;51.050;17.018;2023-08-12T15:16:08;100228.87;;;30.19;38.10
79004;BME280;68369;51.050;17.018;2023-08-12T15:18:59;100226.91;;;30.47;37.73
79004;BME280;68369;51.050;17.018;2023-08-12T15:21:47;100224.66;;;31.26;36.40
79004;BME280;68369;51.050;17.018;2023-08-12T15:34:10;100230.41;;;33.93;33.70
79004;BME280;68369;51.050;17.018;2023-08-12T17:16:43;100185.58;;;27.07;45.82
79004;BME280;68369;51.050;17.018;2023-08-12T17:26:21;100196.05;;;26.58;48.57
79004;BME280;68369;51.050;17.018;2023-08-12T17:29:09;100189.48;;;26.42;48.93
79004;BME280;68369;51.050;17.018;2023-08-12T17:31:55;100191.11;;;26.29;49.43
79004;BME280;68369;51.050;17.018;2023-08-12T17:34:43;100191.98;;;26.17;50.80
79004;BME280;68369;51.050;17.018;2023-08-12T17:37:39;100192.64;;;26.04;51.74
79004;BME280;68369;51.050;17.018;2023-08-12T17:40:26;100193.17;;;25.91;52.17
79004;BME280;68369;51.050;17.018;2023-08-12T17:43:12;100195.27;;;25.79;50.80
79004;BME280;68369;51.050;17.018;2023-08-12T17:52:33;100183.79;;;25.53;52.07
79004;BME280;68369;51.050;17.018;2023-08-12T17:58:27;100182.44;;;25.35;53.99
79004;BME280;68369;51.050;17.018;2023-08-12T18:01:14;100182.35;;;25.26;54.25
79004;BME280;68369;51.050;17.018;2023-08-12T18:04:00;100190.38;;;25.18;54.89
79004;BME280;68369;51.050;17.018;2023-08-12T18:06:47;100195.28;;;25.10;55.13
79004;BME280;68369;51.050;17.018;2023-08-12T18:09:34;100198.07;;;25.03;54.40
79004;BME280;68369;51.050;17.018;2023-08-12T18:21:57;100207.40;;;24.77;54.57
79004;BME280;68369;51.050;17.018;2023-08-12T18:24:44;100215.59;;;24.70;54.36
79004;BME280;68369;51.050;17.018;2023-08-12T18:30:51;100221.85;;;24.58;54.98
79004;BME280;68369;51.050;17.018;2023-08-12T18:33:38;100221.52;;;24.53;54.77
79004;BME280;68369;51.050;17.018;2023-08-12T18:36:24;100225.58;;;24.48;54.32
79004;BME280;68369;51.050;17.018;2023-08-12T18:39:11;100225.65;;;24.43;55.19
79004;BME280;68369;51.050;17.018;2023-08-12T18:41:58;100229.67;;;24.39;55.62
79004;BME280;68369;51.050;17.018;2023-08-12T18:44:46;100230.91;;;24.34;56.18
79004;BME280;68369;51.050;17.018;2023-08-12T18:47:31;100230.30;;;24.29;55.96
79004;BME280;68369;51.050;17.018;2023-08-12T18:53:29;100231.11;;;24.18;56.64
79004;BME280;68369;51.050;17.018;2023-08-12T18:56:14;100230.60;;;24.12;56.88
79004;BME280;68369;51.050;17.018;2023-08-12T18:59:01;100230.90;;;24.09;57.20
79004;BME280;68369;51.050;17.018;2023-08-12T19:01:47;100228.70;;;24.06;57.33
79004;BME280;68369;51.050;17.018;2023-08-12T19:04:33;100223.64;;;24.03;57.33
79004;BME280;68369;51.050;17.018;2023-08-12T19:07:19;100212.32;;;24.00;57.34
79004;BME280;68369;51.050;17.018;2023-08-12T19:10:07;100215.20;;;23.97;57.49
79004;BME280;68369;51.050;17.018;2023-08-12T19:12:54;100205.46;;;23.92;57.55
79004;BME280;68369;51.050;17.018;2023-08-12T19:15:40;100201.53;;;23.86;57.81
79004;BME280;68369;51.050;17.018;2023-08-12T19:18:28;100204.42;;;23.81;58.03
79004;BME280;68369;51.050;17.018;2023-08-12T19:34:09;100204.48;;;23.62;58.99
79004;BME280;68369;51.050;17.018;2023-08-12T19:36:55;100203.02;;;23.60;59.29
79004;BME280;68369;51.050;17.018;2023-08-12T19:39:42;100207.83;;;23.57;58.99
79004;BME280;68369;51.050;17.018;2023-08-12T19:42:32;100209.82;;;23.53;58.87
79004;BME280;68369;51.050;17.018;2023-08-12T19:45:22;100214.45;;;23.50;58.03
79004;BME280;68369;51.050;17.018;2023-08-12T19:54:41;100212.40;;;23.47;56.03
79004;BME280;68369;51.050;17.018;2023-08-12T19:57:29;100207.94;;;23.47;55.84
79004;BME280;68369;51.050;17.018;2023-08-12T20:00:27;100209.83;;;23.47;55.87
79004;BME280;68369;51.050;17.018;2023-08-12T20:03:16;100208.37;;;23.48;56.00
79004;BME280;68369;51.050;17.018;2023-08-12T20:06:13;100205.94;;;23.47;56.02
79004;BME280;68369;51.050;17.018;2023-08-12T20:09:04;100206.00;;;23.46;56.57
79004;BME280;68369;51.050;17.018;2023-08-12T20:12:03;100208.45;;;23.45;56.14
79004;BME280;68369;51.050;17.018;2023-08-12T20:14:56;100212.67;;;23.44;56.03
79004;BME280;68369;51.050;17.018;2023-08-12T20:17:52;100215.14;;;23.43;55.78
79004;BME280;68369;51.050;17.018;2023-08-12T20:23:55;100219.58;;;23.45;55.14
79004;BME280;68369;51.050;17.018;2023-08-12T20:26:41;100217.99;;;23.46;54.98
79004;BME280;68369;51.050;17.018;2023-08-12T20:29:27;100223.31;;;23.48;54.73
79004;BME280;68369;51.050;17.018;2023-08-12T20:32:17;100218.83;;;23.49;54.59
79004;BME280;68369;51.050;17.018;2023-08-12T20:45:06;100212.44;;;23.44;54.80
79004;BME280;68369;51.050;17.018;2023-08-12T20:51:09;100200.56;;;23.33;55.87
79004;BME280;68369;51.050;17.018;2023-08-12T21:22:35;100205.31;;;22.51;56.45
79004;BME280;68369;51.050;17.018;2023-08-12T21:25:21;100205.77;;;22.46;56.12
79004;BME280;68369;51.050;17.018;2023-08-12T21:31:07;100202.63;;;22.40;55.60
79004;BME280;68369;51.050;17.018;2023-08-12T21:33:53;100201.37;;;22.40;55.59
79004;BME280;68369;51.050;17.018;2023-08-12T21:36:38;100204.48;;;22.39;55.81
79004;BME280;68369;51.050;17.018;2023-08-12T21:39:26;100204.70;;;22.37;55.86
79004;BME280;68369;51.050;17.018;2023-08-12T22:08:25;100185.75;;;22.24;55.91
79004;BME280;68369;51.050;17.018;2023-08-12T22:11:10;100189.29;;;22.20;56.29
79004;BME280;68369;51.050;17.018;2023-08-12T22:13:56;100189.27;;;22.15;56.15
79004;BME280;68369;51.050;17.018;2023-08-12T22:16:42;100191.64;;;22.08;56.45
79004;BME280;68369;51.050;17.018;2023-08-12T22:19:27;100199.02;;;22.04;56.42
79004;BME280;68369;51.050;17.018;2023-08-12T22:31:59;100211.08;;;21.89;58.62
79004;BME280;68369;51.050;17.018;2023-08-12T22:34:44;100214.73;;;21.86;58.41
79004;BME280;68369;51.050;17.018;2023-08-12T22:37:32;100211.20;;;21.84;58.76
79004;BME280;68369;51.050;17.018;2023-08-12T22:40:18;100209.26;;;21.80;58.97
79004;BME280;68369;51.050;17.018;2023-08-12T22:43:05;100208.73;;;21.75;59.11
79004;BME280;68369;51.050;17.018;2023-08-12T22:48:59;100205.11;;;21.66;59.51
79004;BME280;68369;51.050;17.018;2023-08-12T22:51:45;100202.10;;;21.62;59.85
79004;BME280;68369;51.050;17.018;2023-08-12T22:54:30;100205.13;;;21.58;59.89
79004;BME280;68369;51.050;17.018;2023-08-12T22:57:18;100206.64;;;21.55;59.94
79004;BME280;68369;51.050;17.018;2023-08-12T23:00:04;100207.96;;;21.52;58.98
79004;BME280;68369;51.050;17.018;2023-08-12T23:02:52;100205.83;;;21.50;58.77
79004;BME280;68369;51.050;17.018;2023-08-12T23:25:52;100197.86;;;21.46;58.64
79004;BME280;68369;51.050;17.018;2023-08-12T23:31:38;100200.15;;;21.42;58.65
79004;BME280;68369;51.050;17.018;2023-08-12T23:34:24;100203.58;;;21.42;58.60
79004;BME280;68369;51.050;17.018;2023-08-12T23:37:10;100212.52;;;21.41;58.45
79004;BME280;68369;51.050;17.018;2023-08-12T23:39:56;100222.98;;;21.42;59.30
79004;BME280;68369;51.050;17.018;2023-08-12T23:45:50;100219.16;;;21.45;60.00
79004;BME280;68369;51.050;17.018;2023-08-12T23:51:50;100227.72;;;21.45;60.59
79004;BME280;68369;51.050;17.018;2023-08-12T23:54:36;100224.39;;;21.42;60.74
79004;BME280;68369;51.050;17.018;2023-08-12T23:57:22;100235.52;;;21.39;60.70
